Appleby, United Kingdom
Current Conditions -  °F | °C
As of 9:20 PM on Saturday 25 Oct 2014 (Local Time) from EGNJ Reporting Station
Broken Clouds Broken Clouds  
Wind Chill: 13°   Ceiling: 4200
Heat Index: 13°   Visibility: 6mi
Dew Point: 10°   Wind: 16mph
Humidity: 82%   Direction: 200°SSW
Pressure: 29.97"   Gusts: NA
Location:  53.62°N, 0.57°W
Report Text: EGNJ 252020Z 20014KT 9999 BKN042 13/10 Q1015
Loading
Personal Weather Stations






























Interactive Weather Map
Tropical Storm Tracking
New forecast layout! Learn more

10-Day Weather Forecast

Advertisements
Track Severe Weather on mobile